Time;durP1;ratioP1;P1;durP2;ratioP2;P2;SDS_P1;SDS_P2;PMS_P1;PMS_P2;Temp;Humidity;BMP_temperature;BMP_pressure;BME280_temperature;BME280_humidity;BME280_pressure;Samples;Min_cycle;Max_cycle;Signal;HPM_P1;HPM_P2
2021/10/16 00:01:22;;;;;;;4.63;3.30;;;7.20;99.90;;;;;;5073001;28;20042;-75
2021/10/16 00:03:48;;;;;;;6.75;3.35;;;7.30;99.90;;;;;;5088210;28;20424;-74
2021/10/16 00:06:14;;;;;;;3.15;2.78;;;7.30;99.90;;;;;;5093066;28;20032;-74
2021/10/16 00:08:40;;;;;;;9.68;5.15;;;7.30;99.90;;;;;;5086161;28;20074;-74
2021/10/16 00:11:06;;;;;;;4.43;3.20;;;7.30;99.90;;;;;;5073998;28;20024;-74
2021/10/16 00:13:32;;;;;;;4.22;3.25;;;7.30;99.90;;;;;;5074983;28;20024;-75
2021/10/16 00:15:58;;;;;;;4.75;3.45;;;7.30;99.90;;;;;;5091443;28;20031;-74
2021/10/16 00:18:24;;;;;;;4.95;3.20;;;7.30;99.90;;;;;;5092947;28;20032;-74
2021/10/16 00:20:50;;;;;;;4.75;3.13;;;7.30;99.90;;;;;;5075952;28;20103;-74
2021/10/16 00:23:16;;;;;;;4.70;3.25;;;7.20;99.90;;;;;;5089406;28;20503;-74
2021/10/16 00:25:43;;;;;;;4.85;3.00;;;7.20;99.90;;;;;;5091552;28;20024;-74
2021/10/16 00:28:08;;;;;;;6.38;3.88;;;7.20;99.90;;;;;;5092833;28;20017;-75
2021/10/16 00:30:34;;;;;;;5.03;3.35;;;7.20;99.90;;;;;;5088191;28;20039;-74
2021/10/16 00:33:00;;;;;;;4.00;2.90;;;7.20;99.90;;;;;;5092721;28;20519;-74
2021/10/16 00:35:25;;;;;;;4.18;2.83;;;7.20;99.90;;;;;;5071165;28;20041;-74
2021/10/16 00:37:51;;;;;;;4.28;3.20;;;7.10;99.90;;;;;;5072448;28;20099;-74
2021/10/16 00:40:17;;;;;;;3.78;3.47;;;7.10;99.90;;;;;;5080639;28;20039;-74
2021/10/16 00:42:47;;;;;;;3.72;3.33;;;7.10;99.90;;;;;;5076428;28;20025;-74
2021/10/16 00:45:14;;;;;;;3.88;3.10;;;7.20;99.90;;;;;;5094068;28;20108;-74
2021/10/16 00:47:39;;;;;;;4.68;3.65;;;7.20;99.90;;;;;;5096088;28;20020;-74
2021/10/16 00:50:06;;;;;;;4.07;3.28;;;7.10;99.90;;;;;;5094035;28;20081;-73
2021/10/16 00:52:32;;;;;;;4.25;3.55;;;7.10;99.90;;;;;;5081171;28;20486;-73
2021/10/16 00:54:58;;;;;;;4.13;3.03;;;7.10;99.90;;;;;;5075655;28;20032;-73
2021/10/16 00:57:24;;;;;;;4.82;3.63;;;7.10;99.90;;;;;;5076522;28;20078;-74
2021/10/16 00:59:49;;;;;;;5.70;3.40;;;7.00;99.90;;;;;;5075412;28;20037;-73
2021/10/16 01:02:19;;;;;;;4.72;3.30;;;7.00;99.90;;;;;;5075361;28;20055;-74
2021/10/16 01:04:46;;;;;;;3.35;3.05;;;7.10;99.90;;;;;;5088801;28;20078;-73
2021/10/16 01:07:12;;;;;;;4.70;3.25;;;7.00;99.90;;;;;;5094695;28;20020;-74
2021/10/16 01:09:40;;;;;;;3.83;3.50;;;7.00;99.90;;;;;;5087106;28;20047;-74
2021/10/16 01:12:08;;;;;;;6.45;3.85;;;7.00;99.90;;;;;;5077410;28;20025;-74
2021/10/16 01:14:33;;;;;;;4.93;3.80;;;7.00;99.90;;;;;;5093507;28;20466;-73
2021/10/16 01:17:00;;;;;;;4.43;4.03;;;6.90;99.90;;;;;;5094282;28;20104;-74
2021/10/16 01:19:29;;;;;;;8.05;3.97;;;6.90;99.90;;;;;;5090391;28;20031;-73
2021/10/16 01:21:55;;;;;;;5.38;3.20;;;6.80;99.90;;;;;;5083348;28;20439;-74
2021/10/16 01:24:21;;;;;;;5.72;3.72;;;6.90;99.90;;;;;;5075601;28;20024;-73
2021/10/16 01:26:50;;;;;;;6.43;4.93;;;6.90;99.90;;;;;;5083437;28;20454;-74
2021/10/16 01:29:26;;;;;;;9.63;3.95;;;6.90;99.90;;;;;;5095413;28;20035;-74
2021/10/16 01:31:52;;;;;;;3.97;3.58;;;6.90;99.90;;;;;;5094475;28;20081;-73
2021/10/16 01:34:18;;;;;;;5.13;4.25;;;6.80;99.90;;;;;;5095287;28;20024;-73
2021/10/16 01:36:46;;;;;;;6.80;4.18;;;6.90;99.90;;;;;;5093329;28;20389;-74
2021/10/16 01:39:13;;;;;;;5.20;3.85;;;6.90;99.90;;;;;;5092076;28;20048;-74
2021/10/16 01:41:38;;;;;;;9.30;4.78;;;6.90;99.90;;;;;;5093808;28;20046;-74
2021/10/16 01:44:06;;;;;;;7.10;4.53;;;6.90;99.90;;;;;;5094843;28;20020;-73
2021/10/16 01:46:32;;;;;;;7.10;5.32;;;6.90;99.90;;;;;;5081818;28;20508;-73
2021/10/16 01:48:58;;;;;;;6.18;4.32;;;6.90;99.90;;;;;;5074682;28;20056;-74
2021/10/16 01:51:24;;;;;;;8.90;4.53;;;6.80;99.90;;;;;;5073361;28;20021;-74
2021/10/16 01:53:50;;;;;;;5.78;4.53;;;6.80;99.90;;;;;;5074123;28;20039;-74
2021/10/16 01:56:15;;;;;;;5.82;4.20;;;6.80;99.90;;;;;;5073854;28;20385;-74
2021/10/16 01:58:41;;;;;;;9.07;4.85;;;6.80;99.90;;;;;;5073817;28;20103;-74
2021/10/16 02:01:07;;;;;;;7.75;5.35;;;6.80;99.90;;;;;;5074859;28;20393;-74
2021/10/16 02:03:32;;;;;;;11.88;5.40;;;6.70;99.90;;;;;;5074475;28;20028;-73
2021/10/16 02:05:58;;;;;;;9.00;4.85;;;6.80;99.90;;;;;;5089481;28;20113;-74
2021/10/16 02:08:24;;;;;;;9.82;5.15;;;6.70;99.90;;;;;;5092875;28;20111;-73
2021/10/16 02:10:49;;;;;;;8.00;5.32;;;6.80;99.90;;;;;;5093584;28;20019;-74
2021/10/16 02:13:15;;;;;;;9.50;4.65;;;6.80;99.90;;;;;;5094366;28;20027;-73
2021/10/16 02:15:40;;;;;;;12.38;5.45;;;6.80;99.90;;;;;;5094421;28;20028;-74
2021/10/16 02:18:06;;;;;;;12.88;6.60;;;6.70;99.90;;;;;;5093175;28;20308;-75
2021/10/16 02:20:32;;;;;;;8.65;5.47;;;6.60;99.90;;;;;;5094637;28;20059;-74
2021/10/16 02:22:57;;;;;;;12.30;5.60;;;6.40;99.90;;;;;;5093341;28;20110;-74
2021/10/16 02:25:23;;;;;;;8.85;5.57;;;6.50;99.90;;;;;;5078564;28;20067;-73
2021/10/16 02:27:49;;;;;;;10.98;5.93;;;6.40;99.90;;;;;;5089904;28;20132;-74
2021/10/16 02:30:14;;;;;;;13.18;5.00;;;6.50;99.90;;;;;;5089591;28;20021;-74
2021/10/16 02:32:40;;;;;;;12.82;6.75;;;6.50;99.90;;;;;;5074176;28;20070;-74
2021/10/16 02:35:07;;;;;;;13.13;5.65;;;6.50;99.90;;;;;;5092775;28;20393;-73
2021/10/16 02:37:32;;;;;;;10.00;5.38;;;6.50;99.90;;;;;;5094546;28;20103;-73
2021/10/16 02:39:58;;;;;;;11.40;6.13;;;6.50;99.90;;;;;;5076577;28;20468;-73
2021/10/16 02:42:24;;;;;;;9.73;5.05;;;6.60;99.90;;;;;;5074295;28;20039;-74
2021/10/16 02:44:50;;;;;;;11.52;5.05;;;6.60;99.90;;;;;;5088746;28;20028;-73
2021/10/16 02:47:16;;;;;;;9.18;5.35;;;6.60;99.90;;;;;;5093114;28;20477;-74
2021/10/16 02:49:42;;;;;;;18.40;5.15;;;6.60;99.90;;;;;;5093838;28;20026;-73
2021/10/16 02:52:08;;;;;;;12.73;5.97;;;6.50;99.90;;;;;;5093932;28;20024;-74
2021/10/16 02:54:34;;;;;;;8.57;4.95;;;6.50;99.90;;;;;;5082314;28;20528;-73
2021/10/16 02:57:00;;;;;;;10.32;5.05;;;6.50;99.90;;;;;;5073863;28;20104;-74
2021/10/16 02:59:25;;;;;;;10.27;5.53;;;6.50;99.90;;;;;;5072154;28;20036;-73
2021/10/16 03:01:51;;;;;;;11.60;5.43;;;6.50;99.90;;;;;;5071767;28;20024;-74
2021/10/16 03:04:17;;;;;;;8.65;4.97;;;6.50;99.90;;;;;;5071686;28;20474;-73
2021/10/16 03:06:42;;;;;;;9.93;4.45;;;6.60;99.90;;;;;;5084304;28;20031;-74
2021/10/16 03:09:08;;;;;;;7.53;5.18;;;6.60;99.90;;;;;;5093438;28;20048;-73
2021/10/16 03:11:33;;;;;;;12.15;5.20;;;6.60;99.90;;;;;;5094241;28;20452;-73
2021/10/16 03:14:00;;;;;;;8.43;4.38;;;6.60;99.90;;;;;;5093298;28;20022;-73
2021/10/16 03:16:26;;;;;;;8.02;5.47;;;6.60;99.90;;;;;;5085972;28;20024;-74
2021/10/16 03:18:53;;;;;;;6.93;4.57;;;6.60;99.90;;;;;;5079711;28;20020;-73
2021/10/16 03:21:21;;;;;;;11.45;5.40;;;6.60;99.90;;;;;;5093664;28;20020;-73
2021/10/16 03:23:48;;;;;;;9.73;5.20;;;6.60;99.90;;;;;;5087472;28;20039;-73
2021/10/16 03:26:13;;;;;;;10.35;5.60;;;6.60;99.90;;;;;;5072894;28;20466;-75
2021/10/16 03:28:39;;;;;;;13.60;6.60;;;6.60;99.90;;;;;;5071907;28;20024;-74
2021/10/16 03:31:05;;;;;;;11.07;5.55;;;6.60;99.90;;;;;;5073246;28;20036;-75
2021/10/16 03:33:30;;;;;;;11.05;5.43;;;6.60;99.90;;;;;;5078490;28;20114;-74
2021/10/16 03:35:56;;;;;;;12.13;4.90;;;6.60;99.90;;;;;;5084135;28;20016;-74
2021/10/16 03:38:22;;;;;;;11.25;4.97;;;6.60;99.90;;;;;;5090779;28;20032;-74
2021/10/16 03:40:47;;;;;;;10.35;5.00;;;6.60;99.90;;;;;;5091972;28;20032;-75
2021/10/16 03:43:13;;;;;;;10.80;4.82;;;6.60;99.90;;;;;;5091577;28;20024;-73
2021/10/16 03:45:39;;;;;;;11.30;5.05;;;6.60;99.90;;;;;;5089414;28;20012;-75
2021/10/16 03:48:04;;;;;;;8.80;4.43;;;6.60;99.90;;;;;;5071219;28;20093;-75
2021/10/16 03:50:32;;;;;;;14.13;7.47;;;6.60;99.90;;;;;;5072992;28;20021;-74
2021/10/16 03:52:58;;;;;;;11.63;6.20;;;6.60;99.90;;;;;;5071697;28;20119;-73
2021/10/16 03:55:24;;;;;;;7.70;4.65;;;6.70;99.90;;;;;;5072501;28;20104;-73
2021/10/16 03:57:50;;;;;;;8.05;4.60;;;6.70;99.90;;;;;;5072420;28;20024;-73
2021/10/16 04:00:19;;;;;;;8.98;4.78;;;6.70;99.90;;;;;;5071588;28;20036;-73
2021/10/16 04:02:47;;;;;;;8.63;4.63;;;6.70;99.90;;;;;;5072865;28;20020;-73
2021/10/16 04:05:13;;;;;;;10.32;4.00;;;6.70;99.90;;;;;;5072605;28;20017;-73
2021/10/16 04:07:40;;;;;;;9.05;4.88;;;6.70;99.90;;;;;;5071126;28;20024;-73
2021/10/16 04:10:07;;;;;;;10.43;4.15;;;6.70;99.90;;;;;;5072192;28;20040;-73
2021/10/16 04:12:33;;;;;;;12.00;5.15;;;6.70;99.90;;;;;;5081242;28;20073;-74
2021/10/16 04:14:58;;;;;;;7.70;4.78;;;6.70;99.90;;;;;;5096957;28;20385;-74
2021/10/16 04:17:24;;;;;;;10.50;4.55;;;6.70;99.90;;;;;;5098337;28;20023;-74
2021/10/16 04:19:50;;;;;;;9.82;4.40;;;6.70;99.90;;;;;;5098977;28;20047;-73
2021/10/16 04:22:16;;;;;;;11.27;3.97;;;6.70;99.90;;;;;;5080512;28;20049;-74
2021/10/16 04:24:42;;;;;;;9.55;4.25;;;6.70;99.90;;;;;;5093632;28;20059;-74
2021/10/16 04:27:07;;;;;;;13.32;5.40;;;6.70;99.90;;;;;;5078100;28;20115;-74
2021/10/16 04:29:33;;;;;;;12.18;5.00;;;6.70;99.90;;;;;;5086212;28;20020;-74
2021/10/16 04:31:58;;;;;;;7.13;4.80;;;6.60;99.90;;;;;;5099507;28;20024;-75
2021/10/16 04:34:24;;;;;;;7.95;4.90;;;6.60;99.90;;;;;;5095514;28;20031;-74
2021/10/16 04:36:50;;;;;;;14.25;5.85;;;6.60;99.90;;;;;;5098234;28;20070;-74
2021/10/16 04:39:15;;;;;;;8.90;5.50;;;6.50;99.90;;;;;;5097571;28;20043;-74
2021/10/16 04:41:41;;;;;;;9.23;5.28;;;6.50;99.90;;;;;;5099373;28;20024;-74
2021/10/16 04:44:07;;;;;;;14.52;5.93;;;6.40;99.90;;;;;;5098765;28;20024;-73
2021/10/16 04:46:33;;;;;;;14.23;5.68;;;6.40;99.90;;;;;;5079082;28;20029;-74
2021/10/16 04:48:59;;;;;;;10.10;6.40;;;6.40;99.90;;;;;;5086300;28;20055;-74
2021/10/16 04:51:24;;;;;;;11.82;6.13;;;6.40;99.90;;;;;;5099553;28;20059;-74
2021/10/16 04:53:50;;;;;;;16.00;7.15;;;6.40;99.90;;;;;;5097406;28;20024;-73
2021/10/16 04:56:16;;;;;;;13.60;7.15;;;6.40;99.90;;;;;;5082733;28;20032;-74
2021/10/16 04:58:41;;;;;;;14.55;8.27;;;6.40;99.90;;;;;;5077024;28;20447;-73
2021/10/16 05:01:07;;;;;;;13.32;7.38;;;6.30;99.90;;;;;;5094062;28;20556;-74
2021/10/16 05:03:33;;;;;;;17.10;8.10;;;6.30;99.90;;;;;;5090350;28;20024;-73
2021/10/16 05:05:58;;;;;;;13.90;7.45;;;6.20;99.90;;;;;;5083758;28;20032;-74
2021/10/16 05:08:24;;;;;;;15.43;7.75;;;6.20;99.90;;;;;;5081181;28;20038;-73
2021/10/16 05:10:50;;;;;;;13.95;7.47;;;6.20;99.90;;;;;;5088052;28;20048;-74
2021/10/16 05:13:17;;;;;;;11.07;7.40;;;6.20;99.90;;;;;;5076291;28;20016;-73
2021/10/16 05:15:42;;;;;;;11.95;7.03;;;6.20;99.90;;;;;;5079053;28;20024;-73
2021/10/16 05:18:08;;;;;;;15.55;7.32;;;6.20;99.90;;;;;;5086672;28;20016;-74
2021/10/16 05:20:34;;;;;;;15.27;7.07;;;6.20;99.90;;;;;;5087192;28;20403;-73
2021/10/16 05:22:59;;;;;;;12.85;7.72;;;6.20;99.90;;;;;;5089801;28;20100;-74
2021/10/16 05:25:25;;;;;;;17.15;8.18;;;6.10;99.90;;;;;;5077999;28;20047;-73
2021/10/16 05:27:51;;;;;;;15.50;9.13;;;6.10;99.90;;;;;;5082417;28;20103;-73
2021/10/16 05:30:17;;;;;;;32.17;16.38;;;6.10;99.90;;;;;;5081325;28;20044;-73
2021/10/16 05:32:44;;;;;;;36.58;21.83;;;6.10;99.90;;;;;;5082093;28;20071;-73
2021/10/16 05:35:10;;;;;;;35.10;20.58;;;6.10;99.90;;;;;;5084309;28;20035;-73
2021/10/16 05:37:36;;;;;;;26.65;17.08;;;6.10;99.90;;;;;;5089393;28;20028;-74
2021/10/16 05:40:03;;;;;;;30.27;18.13;;;6.10;99.90;;;;;;5095091;28;20081;-73
2021/10/16 05:42:29;;;;;;;24.42;14.23;;;6.10;99.90;;;;;;5084894;28;20538;-73
2021/10/16 05:44:55;;;;;;;20.50;11.55;;;6.10;99.90;;;;;;5079240;28;20028;-73
2021/10/16 05:47:20;;;;;;;25.83;11.45;;;6.10;99.90;;;;;;5082580;28;20385;-74
2021/10/16 05:49:46;;;;;;;14.88;7.60;;;6.00;99.90;;;;;;5079881;28;20031;-73
2021/10/16 05:52:12;;;;;;;20.95;9.30;;;6.10;99.90;;;;;;5081606;28;20398;-74
2021/10/16 05:54:37;;;;;;;18.45;9.90;;;6.10;99.90;;;;;;5081398;28;20024;-72
2021/10/16 05:57:03;;;;;;;29.08;14.63;;;6.20;99.90;;;;;;5083162;28;20041;-74
2021/10/16 05:59:29;;;;;;;35.78;19.13;;;6.20;99.90;;;;;;5073997;28;20506;-73
2021/10/16 06:01:55;;;;;;;28.75;16.45;;;6.30;99.90;;;;;;5071432;28;20035;-73
2021/10/16 06:04:20;;;;;;;48.35;26.83;;;6.30;99.90;;;;;;5073439;28;20047;-74
2021/10/16 06:06:46;;;;;;;70.88;33.95;;;6.30;99.90;;;;;;5091306;28;20058;-74
2021/10/16 06:09:12;;;;;;;45.75;22.70;;;6.30;99.90;;;;;;5084500;28;20054;-74
2021/10/16 06:11:37;;;;;;;38.28;21.77;;;6.40;99.90;;;;;;5084262;28;20028;-74
2021/10/16 06:14:03;;;;;;;77.47;33.00;;;6.40;99.90;;;;;;5078224;28;20024;-74
2021/10/16 06:16:29;;;;;;;79.68;34.90;;;6.40;99.90;;;;;;5090171;28;20024;-75
2021/10/16 06:18:54;;;;;;;58.70;25.25;;;6.40;99.90;;;;;;5092957;28;20020;-74
2021/10/16 06:21:20;;;;;;;33.55;16.42;;;6.50;99.90;;;;;;5091853;28;20043;-75
2021/10/16 06:23:45;;;;;;;25.17;12.70;;;6.50;99.90;;;;;;5083144;28;20035;-74
2021/10/16 06:26:11;;;;;;;21.40;11.73;;;6.50;99.90;;;;;;5080947;28;20121;-74
2021/10/16 06:28:37;;;;;;;24.63;12.27;;;6.60;99.90;;;;;;5076344;28;20024;-74
2021/10/16 06:31:03;;;;;;;18.63;11.02;;;6.60;99.90;;;;;;5080893;28;20017;-73
2021/10/16 06:33:28;;;;;;;20.95;11.68;;;6.70;99.90;;;;;;5082666;28;20492;-73
2021/10/16 06:35:54;;;;;;;28.45;12.70;;;6.80;99.90;;;;;;5078966;28;20375;-73
2021/10/16 06:38:21;;;;;;;22.38;12.27;;;6.80;99.90;;;;;;5079470;28;20481;-74
2021/10/16 06:40:46;;;;;;;25.33;11.63;;;6.80;99.90;;;;;;5081941;28;20033;-73
2021/10/16 06:43:12;;;;;;;22.90;12.15;;;6.90;99.90;;;;;;5086118;28;20377;-74
2021/10/16 06:45:38;;;;;;;33.00;13.98;;;6.90;99.90;;;;;;5091105;28;20035;-73
2021/10/16 06:48:04;;;;;;;22.25;12.13;;;7.00;99.90;;;;;;5085016;28;20116;-73
2021/10/16 06:50:29;;;;;;;28.10;12.35;;;7.00;99.90;;;;;;5069963;28;20029;-73
2021/10/16 06:52:55;;;;;;;26.60;11.85;;;7.10;99.90;;;;;;5072285;28;20424;-74
2021/10/16 06:55:21;;;;;;;24.98;12.20;;;7.20;99.90;;;;;;5070346;28;20059;-74
2021/10/16 06:57:46;;;;;;;23.50;12.20;;;7.20;99.90;;;;;;5077409;28;20119;-74
2021/10/16 07:00:12;;;;;;;27.52;11.45;;;7.20;99.90;;;;;;5074964;28;20094;-74
2021/10/16 07:02:38;;;;;;;24.23;11.02;;;7.30;99.90;;;;;;5089189;28;20019;-74
2021/10/16 07:05:04;;;;;;;22.10;10.52;;;7.30;99.90;;;;;;5075201;28;20118;-74
2021/10/16 07:07:30;;;;;;;21.88;10.50;;;7.30;99.90;;;;;;5070312;28;20131;-75
2021/10/16 07:09:56;;;;;;;17.92;9.13;;;7.30;99.90;;;;;;5079976;28;20465;-74
2021/10/16 07:12:26;;;;;;;22.92;9.90;;;7.30;99.90;;;;;;5069599;28;20028;-74
2021/10/16 07:14:52;;;;;;;17.50;10.45;;;7.30;99.90;;;;;;5074896;28;20032;-75
2021/10/16 07:17:17;;;;;;;18.30;10.40;;;7.30;99.90;;;;;;5082201;28;20536;-74
2021/10/16 07:19:43;;;;;;;16.73;11.30;;;7.30;99.90;;;;;;5079320;28;20139;-75
2021/10/16 07:22:09;;;;;;;22.88;11.15;;;7.40;99.90;;;;;;5082738;28;20024;-75
2021/10/16 07:24:35;;;;;;;22.00;11.15;;;7.40;99.90;;;;;;5080373;28;20036;-75
2021/10/16 07:27:00;;;;;;;19.73;10.20;;;7.40;99.90;;;;;;5073555;28;20431;-74
2021/10/16 07:29:26;;;;;;;15.40;9.90;;;7.40;99.90;;;;;;5090325;28;20105;-74
2021/10/16 07:31:53;;;;;;;21.67;10.02;;;7.40;99.90;;;;;;5089960;28;20052;-74
2021/10/16 07:34:20;;;;;;;22.08;10.85;;;7.40;99.90;;;;;;5085379;28;20032;-75
2021/10/16 07:36:46;;;;;;;22.13;10.48;;;7.40;99.90;;;;;;5089752;28;20035;-74
2021/10/16 07:39:13;;;;;;;29.05;14.27;;;7.40;99.90;;;;;;5081437;28;20580;-74
2021/10/16 07:41:39;;;;;;;22.90;11.73;;;7.60;99.90;;;;;;5078089;28;20055;-73
2021/10/16 07:44:07;;;;;;;23.65;12.55;;;7.60;99.90;;;;;;5088401;28;20023;-74
2021/10/16 07:46:34;;;;;;;19.52;8.45;;;7.70;99.90;;;;;;5075199;28;20027;-75
2021/10/16 07:49:00;;;;;;;11.65;7.28;;;7.80;99.90;;;;;;5081088;28;20017;-74
2021/10/16 07:51:25;;;;;;;15.05;7.78;;;7.90;99.90;;;;;;5077231;28;20123;-75
2021/10/16 07:53:51;;;;;;;17.67;9.02;;;8.00;99.90;;;;;;5076160;28;20501;-74
2021/10/16 07:56:17;;;;;;;17.05;8.45;;;8.00;99.90;;;;;;5077541;28;20127;-74
2021/10/16 07:58:43;;;;;;;15.73;8.18;;;8.10;99.90;;;;;;5081873;28;20028;-74
2021/10/16 08:01:09;;;;;;;18.65;9.32;;;8.10;99.90;;;;;;5077252;28;20045;-74
2021/10/16 08:03:36;;;;;;;15.93;7.47;;;8.20;99.90;;;;;;5078787;28;20024;-75
2021/10/16 08:06:04;;;;;;;15.50;7.75;;;8.10;99.90;;;;;;5082501;28;20032;-74
2021/10/16 08:08:30;;;;;;;18.48;8.60;;;8.10;99.90;;;;;;5078300;28;20048;-75
2021/10/16 08:10:56;;;;;;;17.77;8.98;;;8.20;99.90;;;;;;5077658;28;20083;-75
2021/10/16 08:13:22;;;;;;;26.20;10.90;;;8.20;99.90;;;;;;5074027;28;20461;-77
2021/10/16 08:15:50;;;;;;;27.40;11.73;;;8.20;99.90;;;;;;5076319;28;20033;-74
2021/10/16 08:18:16;;;;;;;22.08;10.93;;;8.10;99.90;;;;;;5085374;28;20115;-76
2021/10/16 08:20:41;;;;;;;22.75;11.73;;;8.10;99.90;;;;;;5089825;28;20131;-76
2021/10/16 08:23:07;;;;;;;22.83;11.07;;;8.00;99.90;;;;;;5076302;28;20012;-75
2021/10/16 08:25:34;;;;;;;23.02;12.23;;;8.00;99.90;;;;;;5077793;28;20154;-75
2021/10/16 08:28:05;;;;;;;19.75;11.32;;;8.00;99.90;;;;;;5073205;28;20369;-75
2021/10/16 08:30:31;;;;;;;21.42;11.93;;;8.00;99.90;;;;;;5074750;28;20431;-76
2021/10/16 08:32:57;;;;;;;21.52;12.18;;;8.00;99.90;;;;;;5074565;28;20016;-75
2021/10/16 08:35:22;;;;;;;23.00;11.63;;;8.10;99.90;;;;;;5071219;28;20513;-75
2021/10/16 08:37:48;;;;;;;21.75;11.07;;;8.10;99.90;;;;;;5077678;28;20350;-75
2021/10/16 08:40:14;;;;;;;23.25;12.43;;;8.10;99.90;;;;;;5073129;28;20052;-75
2021/10/16 08:42:40;;;;;;;21.67;10.98;;;8.10;99.90;;;;;;5074676;28;20139;-75
2021/10/16 08:45:06;;;;;;;22.15;11.32;;;8.10;99.90;;;;;;5076415;28;20374;-76
2021/10/16 08:47:38;;;;;;;25.13;11.98;;;8.00;99.90;;;;;;5072922;28;20120;-76
2021/10/16 08:50:08;;;;;;;27.60;12.30;;;8.00;99.90;;;;;;5077879;28;20120;-75
2021/10/16 08:52:35;;;;;;;25.85;12.30;;;7.90;99.90;;;;;;5078830;28;20455;-76
2021/10/16 08:55:02;;;;;;;23.10;11.85;;;7.90;99.90;;;;;;5078005;28;20099;-75
2021/10/16 08:57:32;;;;;;;27.55;13.35;;;7.90;99.90;;;;;;5080438;28;20032;-75
2021/10/16 08:59:58;;;;;;;30.52;14.95;;;7.90;99.90;;;;;;5079133;28;20123;-75
2021/10/16 09:02:37;;;;;;;24.85;12.85;;;7.90;99.90;;;;;;5074922;28;20028;-75
2021/10/16 09:05:13;;;;;;;25.15;14.63;;;8.00;99.90;;;;;;5072113;28;20043;-76
2021/10/16 09:07:40;;;;;;;26.75;13.80;;;8.10;99.90;;;;;;5080254;28;20024;-76
2021/10/16 09:10:22;;;;;;;23.25;12.57;;;8.30;99.90;;;;;;5077740;28;20033;-75
2021/10/16 09:12:48;;;;;;;24.90;13.05;;;8.40;99.90;;;;;;5073876;28;20017;-75
2021/10/16 09:15:22;;;;;;;25.27;12.90;;;8.40;99.90;;;;;;5071401;28;20055;-75
2021/10/16 09:18:04;;;;;;;25.80;13.60;;;8.40;99.90;;;;;;5072256;28;20020;-75
2021/10/16 09:20:37;;;;;;;21.83;11.88;;;8.40;99.90;;;;;;5073259;28;20052;-74
2021/10/16 09:23:08;;;;;;;27.30;12.88;;;8.30;99.90;;;;;;5072427;28;20434;-74
2021/10/16 09:25:34;;;;;;;29.50;12.90;;;8.30;99.90;;;;;;5073158;28;20394;-75
2021/10/16 09:28:16;;;;;;;21.15;12.80;;;8.30;99.90;;;;;;5072021;28;20040;-75
2021/10/16 09:30:47;;;;;;;26.60;14.23;;;8.40;99.90;;;;;;5071199;28;20100;-74
2021/10/16 09:33:13;;;;;;;22.73;11.50;;;8.30;99.90;;;;;;5071508;28;20056;-75
2021/10/16 09:35:40;;;;;;;21.95;11.73;;;8.30;99.90;;;;;;5081713;28;20466;-75
2021/10/16 09:38:06;;;;;;;23.27;11.23;;;8.30;99.90;;;;;;5075300;28;20036;-75
2021/10/16 09:40:40;;;;;;;18.83;11.15;;;8.20;99.90;;;;;;5071302;28;20117;-75
2021/10/16 09:43:19;;;;;;;22.38;11.43;;;8.20;99.90;;;;;;5070681;28;20013;-75
2021/10/16 09:45:46;;;;;;;24.00;12.07;;;8.20;99.90;;;;;;5071708;28;20087;-75
2021/10/16 09:48:29;;;;;;;25.05;11.45;;;8.20;99.90;;;;;;5072258;28;20028;-77
2021/10/16 09:51:01;;;;;;;27.63;12.38;;;8.20;99.90;;;;;;5072280;28;20037;-75
2021/10/16 09:53:27;;;;;;;18.70;10.85;;;8.20;99.90;;;;;;5071387;28;20085;-76
2021/10/16 09:55:53;;;;;;;24.35;12.35;;;8.20;99.90;;;;;;5072140;28;20501;-75
2021/10/16 09:58:24;;;;;;;19.48;11.20;;;8.20;99.90;;;;;;5072529;28;20024;-76
2021/10/16 10:00:53;;;;;;;24.83;11.70;;;8.30;99.90;;;;;;5072014;28;20098;-76
2021/10/16 10:03:32;;;;;;;29.73;14.30;;;8.40;99.90;;;;;;5073429;28;20028;-75
2021/10/16 10:05:58;;;;;;;23.13;12.95;;;8.60;99.90;;;;;;5072087;28;20036;-75
2021/10/16 10:08:24;;;;;;;31.45;17.98;;;8.60;99.90;;;;;;5070412;28;20104;-75
2021/10/16 10:10:50;;;;;;;31.05;15.30;;;8.70;99.90;;;;;;5072910;28;20470;-75
2021/10/16 10:13:17;;;;;;;20.17;12.20;;;8.80;99.90;;;;;;5066634;28;20044;-75
2021/10/16 10:15:43;;;;;;;34.33;19.17;;;8.90;99.90;;;;;;5089466;28;20115;-76
2021/10/16 10:20:57;;;;;;;26.40;11.43;;;9.10;99.90;;;;;;5075181;28;20071;-75
2021/10/16 10:23:24;;;;;;;19.02;12.27;;;9.10;99.90;;;;;;5081225;28;20065;-75
2021/10/16 10:26:26;;;;;;;21.77;11.35;;;9.30;99.90;;;;;;5081025;28;20390;-75
2021/10/16 10:28:53;;;;;;;19.85;10.85;;;9.30;99.90;;;;;;5075267;28;20105;-75
2021/10/16 10:31:51;;;;;;;20.45;10.32;;;9.30;99.90;;;;;;5081163;28;20107;-75
2021/10/16 10:34:20;;;;;;;13.75;8.65;;;9.30;99.90;;;;;;5078133;28;20031;-75
2021/10/16 10:36:53;;;;;;;21.95;12.05;;;9.20;99.90;;;;;;5083097;28;20032;-74
2021/10/16 10:39:32;;;;;;;24.15;13.35;;;9.30;99.90;;;;;;5072478;28;20032;-74
2021/10/16 10:42:01;;;;;;;17.45;9.88;;;9.30;99.90;;;;;;5070727;28;20036;-75
2021/10/16 10:44:47;;;;;;;17.55;10.23;;;9.40;99.90;;;;;;5070445;28;20025;-75
2021/10/16 10:47:33;;;;;;;16.80;10.02;;;9.40;99.90;;;;;;5071197;28;20047;-75
2021/10/16 10:50:07;;;;;;;15.32;8.95;;;9.50;99.90;;;;;;5077227;28;20072;-75
2021/10/16 10:53:04;;;;;;;13.82;8.63;;;9.40;99.90;;;;;;5082199;28;20483;-75
2021/10/16 10:55:30;;;;;;;38.47;20.00;;;9.40;99.90;;;;;;5075354;28;20039;-75
2021/10/16 10:57:58;;;;;;;17.27;9.70;;;9.40;99.90;;;;;;5072279;28;20035;-75
2021/10/16 11:00:33;;;;;;;24.52;11.52;;;9.50;99.90;;;;;;5076504;28;20044;-76
2021/10/16 11:02:59;;;;;;;18.63;10.07;;;9.50;99.90;;;;;;5074540;28;20017;-75
2021/10/16 11:05:34;;;;;;;17.75;10.15;;;9.40;99.90;;;;;;5072218;28;20528;-75
2021/10/16 11:08:09;;;;;;;18.02;9.10;;;9.40;99.90;;;;;;5074562;28;20450;-75
2021/10/16 11:10:36;;;;;;;15.43;9.63;;;9.50;99.90;;;;;;5068922;28;20024;-75
2021/10/16 11:13:12;;;;;;;20.90;10.50;;;9.50;99.90;;;;;;5067479;28;20038;-75
2021/10/16 11:15:42;;;;;;;32.85;14.80;;;9.50;99.90;;;;;;5075646;28;20086;-75
2021/10/16 11:18:13;;;;;;;13.40;7.57;;;9.50;99.90;;;;;;5079104;28;20336;-74
2021/10/16 11:20:39;;;;;;;31.10;12.88;;;9.40;99.90;;;;;;5079052;28;20097;-75
2021/10/16 11:23:06;;;;;;;53.50;24.33;;;9.40;99.90;;;;;;5074762;28;20031;-75
2021/10/16 11:25:34;;;;;;;53.03;24.02;;;9.40;99.90;;;;;;5070719;28;20510;-74
2021/10/16 11:28:12;;;;;;;26.30;11.88;;;9.30;99.90;;;;;;5079943;28;20035;-75
2021/10/16 11:30:44;;;;;;;18.30;8.77;;;9.40;99.40;;;;;;5088380;28;20028;-74
2021/10/16 11:33:12;;;;;;;18.98;7.28;;;9.40;99.60;;;;;;5078372;28;20482;-75
2021/10/16 11:35:39;;;;;;;13.32;5.97;;;9.40;98.60;;;;;;5076590;28;20020;-75
2021/10/16 11:38:06;;;;;;;10.60;5.80;;;9.40;98.70;;;;;;5081651;28;20103;-75
2021/10/16 11:40:33;;;;;;;10.90;5.85;;;9.40;99.90;;;;;;5078042;28;20028;-77
2021/10/16 11:43:08;;;;;;;14.10;6.40;;;9.40;99.90;;;;;;5079629;28;20508;-75
2021/10/16 11:45:35;;;;;;;13.60;6.93;;;9.30;99.10;;;;;;5081764;28;20016;-76
2021/10/16 11:48:05;;;;;;;16.95;6.30;;;9.10;96.60;;;;;;5080702;28;20023;-75
2021/10/16 11:50:41;;;;;;;14.25;7.80;;;9.00;99.90;;;;;;5079130;28;20070;-74
2021/10/16 11:53:08;;;;;;;16.25;6.95;;;9.10;99.40;;;;;;5079070;28;20027;-75
2021/10/16 11:55:34;;;;;;;19.23;8.73;;;9.20;99.90;;;;;;5076276;28;20037;-76
2021/10/16 11:58:13;;;;;;;14.38;6.03;;;9.20;99.90;;;;;;5071523;28;20032;-75
2021/10/16 12:00:40;;;;;;;20.05;7.63;;;9.30;97.70;;;;;;5075709;28;20025;-74
2021/10/16 12:03:13;;;;;;;18.92;8.10;;;9.40;98.20;;;;;;5073423;28;20398;-75
2021/10/16 12:05:40;;;;;;;12.27;6.38;;;9.60;94.20;;;;;;5073704;28;20482;-75
2021/10/16 12:08:17;;;;;;;16.30;6.20;;;9.80;89.20;;;;;;5075177;28;20509;-76
2021/10/16 12:10:47;;;;;;;24.95;10.23;;;9.90;83.90;;;;;;5079420;28;20055;-75
2021/10/16 12:13:14;;;;;;;10.98;5.20;;;10.10;86.50;;;;;;5067772;28;20021;-77
2021/10/16 12:15:50;;;;;;;12.18;4.82;;;10.20;84.10;;;;;;5074788;28;20714;-76
2021/10/16 12:18:26;;;;;;;16.88;8.40;;;10.30;81.50;;;;;;5079374;28;20082;-77
2021/10/16 12:21:04;;;;;;;13.80;4.10;;;10.50;83.10;;;;;;5076974;28;20024;-77
2021/10/16 12:23:47;;;;;;;15.60;5.00;;;10.40;77.60;;;;;;5075495;28;20020;-76
2021/10/16 12:26:32;;;;;;;9.50;4.63;;;10.40;79.30;;;;;;5079411;28;20436;-77
2021/10/16 12:29:00;;;;;;;10.63;4.90;;;10.20;78.50;;;;;;5083092;28;20101;-77
2021/10/16 12:31:26;;;;;;;15.85;5.95;;;9.90;78.60;;;;;;5076820;28;20036;-77
2021/10/16 12:34:00;;;;;;;19.15;8.75;;;9.80;81.20;;;;;;5079151;28;20440;-77
2021/10/16 12:36:38;;;;;;;28.30;11.32;;;9.80;80.70;;;;;;5087330;28;20094;-77
2021/10/16 12:39:07;;;;;;;18.33;8.05;;;9.80;81.20;;;;;;5084479;28;20195;-77
2021/10/16 12:41:40;;;;;;;9.18;5.07;;;9.90;79.60;;;;;;5085866;28;20036;-77
2021/10/16 12:44:22;;;;;;;15.98;6.60;;;10.00;74.10;;;;;;5084565;28;20504;-77
2021/10/16 12:47:07;;;;;;;8.13;3.95;;;10.20;76.30;;;;;;5082128;28;20078;-77
2021/10/16 12:49:43;;;;;;;8.48;3.53;;;10.50;73.50;;;;;;5079365;28;20017;-76
2021/10/16 12:52:31;;;;;;;11.55;6.50;;;10.50;71.50;;;;;;5081133;28;20060;-76